sensor_id;sensor_type;location;lat;lon;timestamp;pressure;altitude;pressure_sealevel;temperature;humidity
75521;BME280;64102;48.628;9.002;2023-03-23T00:02:04;95545.97;;;11.40;53.78
75521;BME280;64102;48.628;9.002;2023-03-23T00:04:29;95544.41;;;11.47;52.85
75521;BME280;64102;48.628;9.002;2023-03-23T00:06:55;95549.56;;;11.47;53.58
75521;BME280;64102;48.628;9.002;2023-03-23T00:09:21;95548.25;;;11.43;53.03
75521;BME280;64102;48.628;9.002;2023-03-23T00:11:49;95545.50;;;11.36;53.65
75521;BME280;64102;48.628;9.002;2023-03-23T00:14:16;95552.88;;;11.31;53.98
75521;BME280;64102;48.628;9.002;2023-03-23T00:16:48;95551.72;;;11.26;53.96
75521;BME280;64102;48.628;9.002;2023-03-23T00:19:14;95548.03;;;11.20;54.05
75521;BME280;64102;48.628;9.002;2023-03-23T00:21:40;95536.56;;;11.22;53.41
75521;BME280;64102;48.628;9.002;2023-03-23T00:24:17;95544.59;;;11.11;54.59
75521;BME280;64102;48.628;9.002;2023-03-23T00:26:45;95537.31;;;11.07;53.94
75521;BME280;64102;48.628;9.002;2023-03-23T00:29:16;95536.63;;;10.97;55.07
75521;BME280;64102;48.628;9.002;2023-03-23T00:31:43;95542.31;;;10.74;55.73
75521;BME280;64102;48.628;9.002;2023-03-23T00:34:15;95534.34;;;10.68;56.81
75521;BME280;64102;48.628;9.002;2023-03-23T00:36:49;95537.03;;;10.58;58.18
75521;BME280;64102;48.628;9.002;2023-03-23T00:39:15;95530.31;;;10.40;59.24
75521;BME280;64102;48.628;9.002;2023-03-23T00:41:42;95523.19;;;10.33;59.04
75521;BME280;64102;48.628;9.002;2023-03-23T00:44:08;95517.47;;;10.22;58.65
75521;BME280;64102;48.628;9.002;2023-03-23T00:46:33;95512.75;;;10.17;58.99
75521;BME280;64102;48.628;9.002;2023-03-23T00:48:59;95514.13;;;10.12;59.96
75521;BME280;64102;48.628;9.002;2023-03-23T00:51:25;95513.44;;;10.10;59.02
75521;BME280;64102;48.628;9.002;2023-03-23T00:53:51;95508.97;;;10.12;60.89
75521;BME280;64102;48.628;9.002;2023-03-23T00:56:16;95512.94;;;10.24;59.62
75521;BME280;64102;48.628;9.002;2023-03-23T00:58:42;95513.34;;;10.37;59.24
75521;BME280;64102;48.628;9.002;2023-03-23T01:01:07;95514.72;;;10.49;59.03
75521;BME280;64102;48.628;9.002;2023-03-23T01:03:33;95506.03;;;10.50;58.47
75521;BME280;64102;48.628;9.002;2023-03-23T01:06:10;95494.84;;;10.67;56.72
75521;BME280;64102;48.628;9.002;2023-03-23T01:08:39;95495.63;;;10.68;57.04
75521;BME280;64102;48.628;9.002;2023-03-23T01:11:10;95501.00;;;10.74;55.70
75521;BME280;64102;48.628;9.002;2023-03-23T01:13:35;95494.09;;;10.75;56.02
75521;BME280;64102;48.628;9.002;2023-03-23T01:16:02;95492.00;;;10.78;56.54
75521;BME280;64102;48.628;9.002;2023-03-23T01:18:27;95489.56;;;10.77;55.69
75521;BME280;64102;48.628;9.002;2023-03-23T01:20:52;95477.13;;;10.72;56.22
75521;BME280;64102;48.628;9.002;2023-03-23T01:23:18;95479.25;;;10.77;56.26
75521;BME280;64102;48.628;9.002;2023-03-23T01:25:43;95478.44;;;10.76;56.27
75521;BME280;64102;48.628;9.002;2023-03-23T01:28:10;95478.94;;;10.80;55.87
75521;BME280;64102;48.628;9.002;2023-03-23T01:30:36;95479.44;;;10.84;56.03
75521;BME280;64102;48.628;9.002;2023-03-23T01:33:02;95472.00;;;10.81;55.70
75521;BME280;64102;48.628;9.002;2023-03-23T01:35:27;95463.50;;;10.88;56.21
75521;BME280;64102;48.628;9.002;2023-03-23T01:37:53;95451.72;;;10.94;55.99
75521;BME280;64102;48.628;9.002;2023-03-23T01:40:19;95454.84;;;11.13;55.57
75521;BME280;64102;48.628;9.002;2023-03-23T01:42:44;95449.56;;;11.23;55.29
75521;BME280;64102;48.628;9.002;2023-03-23T01:48:07;95445.91;;;11.50;54.50
75521;BME280;64102;48.628;9.002;2023-03-23T01:50:50;95437.66;;;11.54;55.19
75521;BME280;64102;48.628;9.002;2023-03-23T01:53:17;95436.03;;;11.53;55.25
75521;BME280;64102;48.628;9.002;2023-03-23T01:55:44;95447.84;;;11.64;54.87
75521;BME280;64102;48.628;9.002;2023-03-23T01:58:13;95436.38;;;11.66;54.84
75521;BME280;64102;48.628;9.002;2023-03-23T02:00:40;95441.53;;;11.66;54.86
75521;BME280;64102;48.628;9.002;2023-03-23T02:03:08;95434.94;;;11.64;55.06
75521;BME280;64102;48.628;9.002;2023-03-23T02:05:40;95438.97;;;11.66;55.02
75521;BME280;64102;48.628;9.002;2023-03-23T02:08:07;95437.19;;;11.67;55.02
75521;BME280;64102;48.628;9.002;2023-03-23T02:10:36;95432.50;;;11.62;55.31
75521;BME280;64102;48.628;9.002;2023-03-23T02:13:03;95441.38;;;11.68;55.21
75521;BME280;64102;48.628;9.002;2023-03-23T02:18:32;95435.75;;;11.64;55.26
75521;BME280;64102;48.628;9.002;2023-03-23T02:21:25;95441.22;;;11.69;54.68
75521;BME280;64102;48.628;9.002;2023-03-23T02:34:53;95421.19;;;11.72;53.78
75521;BME280;64102;48.628;9.002;2023-03-23T02:37:29;95420.25;;;11.64;54.03
75521;BME280;64102;48.628;9.002;2023-03-23T02:40:02;95410.84;;;11.63;54.38
75521;BME280;64102;48.628;9.002;2023-03-23T02:42:40;95403.72;;;11.65;54.49
75521;BME280;64102;48.628;9.002;2023-03-23T02:45:10;95391.63;;;11.66;54.00
75521;BME280;64102;48.628;9.002;2023-03-23T02:47:38;95388.22;;;11.65;54.18
75521;BME280;64102;48.628;9.002;2023-03-23T02:50:05;95401.34;;;11.64;54.37
75521;BME280;64102;48.628;9.002;2023-03-23T02:52:32;95399.56;;;11.64;54.23
75521;BME280;64102;48.628;9.002;2023-03-23T02:55:01;95400.03;;;11.68;54.05
75521;BME280;64102;48.628;9.002;2023-03-23T02:57:28;95386.00;;;11.54;54.18
75521;BME280;64102;48.628;9.002;2023-03-23T02:59:53;95395.03;;;11.50;54.69
75521;BME280;64102;48.628;9.002;2023-03-23T03:02:28;95391.16;;;11.38;55.05
75521;BME280;64102;48.628;9.002;2023-03-23T03:07:48;95386.13;;;11.37;55.74
75521;BME280;64102;48.628;9.002;2023-03-23T03:10:25;95379.84;;;11.39;55.15
75521;BME280;64102;48.628;9.002;2023-03-23T03:12:56;95382.41;;;11.39;55.30
75521;BME280;64102;48.628;9.002;2023-03-23T03:18:20;95376.63;;;11.37;55.88
75521;BME280;64102;48.628;9.002;2023-03-23T03:20:51;95383.56;;;11.37;55.97
75521;BME280;64102;48.628;9.002;2023-03-23T03:23:20;95380.63;;;11.40;56.52
75521;BME280;64102;48.628;9.002;2023-03-23T03:25:47;95378.88;;;11.48;55.54
75521;BME280;64102;48.628;9.002;2023-03-23T03:28:16;95385.19;;;11.46;56.08
75521;BME280;64102;48.628;9.002;2023-03-23T03:30:43;95382.25;;;11.41;56.39
75521;BME280;64102;48.628;9.002;2023-03-23T03:33:10;95376.94;;;11.50;56.21
75521;BME280;64102;48.628;9.002;2023-03-23T03:35:38;95370.81;;;11.51;56.21
75521;BME280;64102;48.628;9.002;2023-03-23T03:38:08;95370.81;;;11.51;56.02
75521;BME280;64102;48.628;9.002;2023-03-23T03:40:34;95370.81;;;11.51;56.01
75521;BME280;64102;48.628;9.002;2023-03-23T03:42:59;95366.94;;;11.55;55.78
75521;BME280;64102;48.628;9.002;2023-03-23T03:45:25;95371.09;;;11.56;55.71
75521;BME280;64102;48.628;9.002;2023-03-23T03:47:50;95379.69;;;11.57;55.87
75521;BME280;64102;48.628;9.002;2023-03-23T03:50:16;95378.06;;;11.64;55.87
75521;BME280;64102;48.628;9.002;2023-03-23T03:52:42;95364.47;;;11.70;55.76
75521;BME280;64102;48.628;9.002;2023-03-23T03:55:09;95370.47;;;11.71;55.57
75521;BME280;64102;48.628;9.002;2023-03-23T03:57:35;95369.69;;;11.78;55.12
75521;BME280;64102;48.628;9.002;2023-03-23T04:00:02;95378.41;;;11.77;55.74
75521;BME280;64102;48.628;9.002;2023-03-23T04:02:38;95363.69;;;11.86;55.02
75521;BME280;64102;48.628;9.002;2023-03-23T04:05:03;95366.63;;;11.83;55.47
75521;BME280;64102;48.628;9.002;2023-03-23T04:07:29;95367.13;;;11.78;55.75
75521;BME280;64102;48.628;9.002;2023-03-23T04:09:54;95359.50;;;11.77;55.71
75521;BME280;64102;48.628;9.002;2023-03-23T04:12:20;95357.25;;;11.74;55.45
75521;BME280;64102;48.628;9.002;2023-03-23T04:14:45;95365.16;;;11.80;55.90
75521;BME280;64102;48.628;9.002;2023-03-23T04:17:11;95366.63;;;11.83;55.41
75521;BME280;64102;48.628;9.002;2023-03-23T04:19:37;95372.75;;;11.90;55.10
75521;BME280;64102;48.628;9.002;2023-03-23T04:22:04;95367.25;;;11.93;55.52
75521;BME280;64102;48.628;9.002;2023-03-23T04:24:29;95375.47;;;11.96;54.97
75521;BME280;64102;48.628;9.002;2023-03-23T04:26:57;95375.47;;;11.96;55.04
75521;BME280;64102;48.628;9.002;2023-03-23T04:29:23;95374.03;;;11.86;55.84
75521;BME280;64102;48.628;9.002;2023-03-23T04:31:48;95363.84;;;11.84;55.35
75521;BME280;64102;48.628;9.002;2023-03-23T04:34:16;95370.00;;;11.83;55.76
75521;BME280;64102;48.628;9.002;2023-03-23T04:36:41;95370.00;;;11.75;56.28
75521;BME280;64102;48.628;9.002;2023-03-23T04:39:07;95375.84;;;11.77;56.00
75521;BME280;64102;48.628;9.002;2023-03-23T04:41:36;95381.31;;;11.74;55.64
75521;BME280;64102;48.628;9.002;2023-03-23T04:44:02;95376.44;;;11.71;56.10
75521;BME280;64102;48.628;9.002;2023-03-23T04:46:28;95379.50;;;11.66;55.79
75521;BME280;64102;48.628;9.002;2023-03-23T04:48:57;95372.56;;;11.67;55.87
75521;BME280;64102;48.628;9.002;2023-03-23T04:51:27;95375.78;;;11.61;56.57
75521;BME280;64102;48.628;9.002;2023-03-23T04:53:53;95380.63;;;11.48;57.05
75521;BME280;64102;48.628;9.002;2023-03-23T04:56:19;95379.53;;;11.50;56.39
75521;BME280;64102;48.628;9.002;2023-03-23T04:58:45;95374.84;;;11.62;55.85
75521;BME280;64102;48.628;9.002;2023-03-23T05:01:12;95370.66;;;11.69;55.90
75521;BME280;64102;48.628;9.002;2023-03-23T05:03:40;95372.94;;;11.72;56.35
75521;BME280;64102;48.628;9.002;2023-03-23T05:06:06;95370.66;;;11.77;55.63
75521;BME280;64102;48.628;9.002;2023-03-23T05:08:32;95369.03;;;11.76;55.57
75521;BME280;64102;48.628;9.002;2023-03-23T05:10:59;95366.94;;;11.80;55.74
75521;BME280;64102;48.628;9.002;2023-03-23T05:13:27;95358.38;;;11.79;55.63
75521;BME280;64102;48.628;9.002;2023-03-23T05:15:52;95356.56;;;11.88;55.55
75521;BME280;64102;48.628;9.002;2023-03-23T05:18:18;95359.00;;;11.97;54.73
75521;BME280;64102;48.628;9.002;2023-03-23T05:20:45;95356.22;;;12.07;54.21
75521;BME280;64102;48.628;9.002;2023-03-23T05:23:12;95356.38;;;12.05;54.43
75521;BME280;64102;48.628;9.002;2023-03-23T05:25:38;95354.28;;;12.09;53.90
75521;BME280;64102;48.628;9.002;2023-03-23T05:28:08;95347.94;;;12.20;53.72
75521;BME280;64102;48.628;9.002;2023-03-23T05:30:34;95356.47;;;12.28;53.54
75521;BME280;64102;48.628;9.002;2023-03-23T05:33:00;95355.06;;;12.26;53.87
75521;BME280;64102;48.628;9.002;2023-03-23T05:35:25;95346.94;;;12.29;53.48
75521;BME280;64102;48.628;9.002;2023-03-23T05:37:52;95352.09;;;12.37;53.06
75521;BME280;64102;48.628;9.002;2023-03-23T05:40:19;95352.44;;;12.34;53.19
75521;BME280;64102;48.628;9.002;2023-03-23T05:42:45;95351.63;;;12.33;53.30
75521;BME280;64102;48.628;9.002;2023-03-23T05:45:11;95353.09;;;12.36;53.02
75521;BME280;64102;48.628;9.002;2023-03-23T05:47:38;95354.97;;;12.42;53.21
75521;BME280;64102;48.628;9.002;2023-03-23T05:50:05;95355.63;;;12.44;52.78
75521;BME280;64102;48.628;9.002;2023-03-23T05:52:32;95367.56;;;12.53;52.55
75521;BME280;64102;48.628;9.002;2023-03-23T05:54:58;95365.44;;;12.56;52.79
75521;BME280;64102;48.628;9.002;2023-03-23T05:57:24;95367.22;;;12.56;52.71
75521;BME280;64102;48.628;9.002;2023-03-23T05:59:49;95380.66;;;12.51;53.08
75521;BME280;64102;48.628;9.002;2023-03-23T06:02:15;95377.06;;;12.61;52.86
75521;BME280;64102;48.628;9.002;2023-03-23T06:04:41;95380.78;;;12.66;52.51
75521;BME280;64102;48.628;9.002;2023-03-23T06:07:07;95384.50;;;12.64;52.91
75521;BME280;64102;48.628;9.002;2023-03-23T06:09:33;95385.16;;;12.66;52.86
75521;BME280;64102;48.628;9.002;2023-03-23T06:11:58;95386.91;;;12.65;52.90
75521;BME280;64102;48.628;9.002;2023-03-23T06:14:24;95392.75;;;12.67;53.07
75521;BME280;64102;48.628;9.002;2023-03-23T06:16:49;95393.84;;;12.73;52.80
75521;BME280;64102;48.628;9.002;2023-03-23T06:19:14;95387.69;;;12.74;52.91
75521;BME280;64102;48.628;9.002;2023-03-23T06:21:41;95398.69;;;12.76;52.87
75521;BME280;64102;48.628;9.002;2023-03-23T06:24:07;95399.94;;;12.88;52.43
75521;BME280;64102;48.628;9.002;2023-03-23T06:26:35;95406.53;;;12.90;52.58
75521;BME280;64102;48.628;9.002;2023-03-23T06:29:02;95417.75;;;12.83;52.85
75521;BME280;64102;48.628;9.002;2023-03-23T06:31:30;95414.41;;;12.74;52.68
75521;BME280;64102;48.628;9.002;2023-03-23T06:33:55;95427.22;;;12.68;53.32
75521;BME280;64102;48.628;9.002;2023-03-23T06:36:21;95431.91;;;12.64;53.20
75521;BME280;64102;48.628;9.002;2023-03-23T06:38:47;95425.13;;;12.63;53.52
75521;BME280;64102;48.628;9.002;2023-03-23T06:41:13;95425.13;;;12.63;53.72
75521;BME280;64102;48.628;9.002;2023-03-23T06:43:39;95433.34;;;12.67;53.37
75521;BME280;64102;48.628;9.002;2023-03-23T06:46:05;95426.88;;;12.71;52.98
75521;BME280;64102;48.628;9.002;2023-03-23T06:48:31;95431.56;;;12.75;53.30
75521;BME280;64102;48.628;9.002;2023-03-23T06:50:57;95430.84;;;12.81;52.66
75521;BME280;64102;48.628;9.002;2023-03-23T06:53:23;95443.59;;;12.91;52.71
75521;BME280;64102;48.628;9.002;2023-03-23T06:55:49;95437.59;;;12.98;52.62
75521;BME280;64102;48.628;9.002;2023-03-23T06:58:14;95448.91;;;13.06;52.52
75521;BME280;64102;48.628;9.002;2023-03-23T07:00:40;95440.47;;;13.03;52.26
75521;BME280;64102;48.628;9.002;2023-03-23T07:03:06;95439.84;;;13.01;52.69
75521;BME280;64102;48.628;9.002;2023-03-23T07:05:33;95444.38;;;13.08;53.08
75521;BME280;64102;48.628;9.002;2023-03-23T07:08:01;95438.06;;;13.02;52.65
75521;BME280;64102;48.628;9.002;2023-03-23T07:10:27;95444.38;;;13.08;52.29
75521;BME280;64102;48.628;9.002;2023-03-23T07:12:53;95440.31;;;13.05;52.80
75521;BME280;64102;48.628;9.002;2023-03-23T07:15:18;95441.13;;;13.06;52.78
75521;BME280;64102;48.628;9.002;2023-03-23T07:17:44;95446.47;;;13.04;52.39
75521;BME280;64102;48.628;9.002;2023-03-23T07:20:10;95454.22;;;13.04;53.09
75521;BME280;64102;48.628;9.002;2023-03-23T07:22:36;95464.13;;;13.00;53.24
75521;BME280;64102;48.628;9.002;2023-03-23T07:25:01;95462.69;;;12.98;53.26
75521;BME280;64102;48.628;9.002;2023-03-23T07:27:27;95464.81;;;12.94;53.73
75521;BME280;64102;48.628;9.002;2023-03-23T07:29:52;95473.09;;;12.90;53.57
75521;BME280;64102;48.628;9.002;2023-03-23T07:32:17;95485.72;;;12.85;54.29
75521;BME280;64102;48.628;9.002;2023-03-23T07:34:43;95494.31;;;12.85;54.38
75521;BME280;64102;48.628;9.002;2023-03-23T07:37:09;95487.03;;;12.81;54.42
75521;BME280;64102;48.628;9.002;2023-03-23T07:39:34;95498.38;;;12.80;54.61
75521;BME280;64102;48.628;9.002;2023-03-23T07:42:00;95494.13;;;12.87;54.84
75521;BME280;64102;48.628;9.002;2023-03-23T07:44:25;95489.06;;;13.01;54.17
75521;BME280;64102;48.628;9.002;2023-03-23T07:46:51;95473.81;;;13.15;53.65
75521;BME280;64102;48.628;9.002;2023-03-23T07:49:17;95480.84;;;13.37;53.53
75521;BME280;64102;48.628;9.002;2023-03-23T07:51:43;95485.34;;;13.43;53.12
75521;BME280;64102;48.628;9.002;2023-03-23T07:54:09;95487.66;;;13.61;52.99
75521;BME280;64102;48.628;9.002;2023-03-23T07:56:36;95487.50;;;13.85;52.32
75521;BME280;64102;48.628;9.002;2023-03-23T07:59:03;95485.31;;;13.97;52.05
75521;BME280;64102;48.628;9.002;2023-03-23T08:01:30;95479.34;;;14.11;51.52
75521;BME280;64102;48.628;9.002;2023-03-23T08:03:55;95489.47;;;14.20;51.50
75521;BME280;64102;48.628;9.002;2023-03-23T08:06:23;95498.81;;;14.29;51.83
75521;BME280;64102;48.628;9.002;2023-03-23T08:08:49;95502.38;;;14.28;52.08
75521;BME280;64102;48.628;9.002;2023-03-23T08:11:15;95505.41;;;14.40;52.19
75521;BME280;64102;48.628;9.002;2023-03-23T08:13:42;95500.44;;;14.30;53.08
75521;BME280;64102;48.628;9.002;2023-03-23T08:16:10;95498.75;;;14.38;52.61
75521;BME280;64102;48.628;9.002;2023-03-23T08:18:37;95498.34;;;14.49;52.00
75521;BME280;64102;48.628;9.002;2023-03-23T08:21:05;95500.81;;;14.79;52.26
75521;BME280;64102;48.628;9.002;2023-03-23T08:23:31;95514.06;;;14.99;51.44
75521;BME280;64102;48.628;9.002;2023-03-23T08:25:58;95513.28;;;14.99;51.63
75521;BME280;64102;48.628;9.002;2023-03-23T08:28:24;95516.56;;;14.78;51.75
75521;BME280;64102;48.628;9.002;2023-03-23T08:30:49;95520.38;;;14.53;53.07
75521;BME280;64102;48.628;9.002;2023-03-23T08:33:15;95517.44;;;14.33;53.75
75521;BME280;64102;48.628;9.002;2023-03-23T08:35:40;95528.94;;;14.16;54.89
75521;BME280;64102;48.628;9.002;2023-03-23T08:38:07;95527.91;;;14.02;55.37
75521;BME280;64102;48.628;9.002;2023-03-23T08:40:33;95519.50;;;14.00;55.97
75521;BME280;64102;48.628;9.002;2023-03-23T08:42:58;95525.53;;;14.15;55.77
75521;BME280;64102;48.628;9.002;2023-03-23T08:45:25;95524.47;;;14.10;55.96
75521;BME280;64102;48.628;9.002;2023-03-23T08:47:51;95521.91;;;14.02;56.20
75521;BME280;64102;48.628;9.002;2023-03-23T08:50:24;95533.28;;;14.01;56.45
75521;BME280;64102;48.628;9.002;2023-03-23T08:52:50;95536.44;;;14.11;56.23
75521;BME280;64102;48.628;9.002;2023-03-23T08:55:16;95542.13;;;14.06;56.27
75521;BME280;64102;48.628;9.002;2023-03-23T08:57:43;95546.69;;;14.04;56.58
75521;BME280;64102;48.628;9.002;2023-03-23T09:00:12;95544.63;;;14.22;56.22
75521;BME280;64102;48.628;9.002;2023-03-23T09:02:42;95541.59;;;14.33;55.36
75521;BME280;64102;48.628;9.002;2023-03-23T09:05:08;95542.03;;;14.45;56.08
75521;BME280;64102;48.628;9.002;2023-03-23T09:07:39;95550.28;;;14.49;55.54
75521;BME280;64102;48.628;9.002;2023-03-23T09:10:06;95543.44;;;14.70;55.74
75521;BME280;64102;48.628;9.002;2023-03-23T09:12:31;95553.81;;;14.70;55.87
75521;BME280;64102;48.628;9.002;2023-03-23T09:14:57;95557.78;;;14.81;55.05
75521;BME280;64102;48.628;9.002;2023-03-23T09:17:22;95559.84;;;14.86;54.95
75521;BME280;64102;48.628;9.002;2023-03-23T09:19:48;95559.19;;;14.69;55.21
75521;BME280;64102;48.628;9.002;2023-03-23T09:22:13;95554.72;;;14.63;55.96
75521;BME280;64102;48.628;9.002;2023-03-23T09:24:40;95559.28;;;14.38;55.66
75521;BME280;64102;48.628;9.002;2023-03-23T09:27:06;95566.44;;;14.59;56.17
75521;BME280;64102;48.628;9.002;2023-03-23T09:29:31;95564.91;;;14.64;56.42
75521;BME280;64102;48.628;9.002;2023-03-23T09:31:57;95578.38;;;14.83;56.81
75521;BME280;64102;48.628;9.002;2023-03-23T09:34:23;95580.84;;;14.61;56.82
75521;BME280;64102;48.628;9.002;2023-03-23T09:36:49;95589.22;;;14.49;57.30
75521;BME280;64102;48.628;9.002;2023-03-23T09:39:15;95591.28;;;14.30;57.40
75521;BME280;64102;48.628;9.002;2023-03-23T09:47:33;95596.56;;;14.45;58.02
75521;BME280;64102;48.628;9.002;2023-03-23T09:50:22;95593.94;;;14.68;56.51
75521;BME280;64102;48.628;9.002;2023-03-23T09:53:01;95590.94;;;14.94;56.59
75521;BME280;64102;48.628;9.002;2023-03-23T09:55:28;95596.22;;;15.00;55.66
75521;BME280;64102;48.628;9.002;2023-03-23T09:58:01;95588.66;;;15.57;54.51
75521;BME280;64102;48.628;9.002;2023-03-23T10:00:39;95588.00;;;15.70;52.86
75521;BME280;64102;48.628;9.002;2023-03-23T10:03:13;95574.06;;;17.05;49.76
75521;BME280;64102;48.628;9.002;2023-03-23T10:05:45;95571.81;;;17.36;48.63
75521;BME280;64102;48.628;9.002;2023-03-23T10:08:49;95579.91;;;17.82;47.53
75521;BME280;64102;48.628;9.002;2023-03-23T10:17:02;95587.47;;;15.60;52.83
75521;BME280;64102;48.628;9.002;2023-03-23T10:19:39;95591.31;;;16.15;52.36
75521;BME280;64102;48.628;9.002;2023-03-23T10:22:11;95588.22;;;16.47;50.38
75521;BME280;64102;48.628;9.002;2023-03-23T10:24:57;95582.38;;;16.45;51.11
75521;BME280;64102;48.628;9.002;2023-03-23T10:27:43;95595.53;;;16.16;52.03
75521;BME280;64102;48.628;9.002;2023-03-23T10:32:51;95589.66;;;15.92;52.08
75521;BME280;64102;48.628;9.002;2023-03-23T10:35:23;95604.50;;;15.77;53.58
75521;BME280;64102;48.628;9.002;2023-03-23T10:37:56;95598.31;;;15.63;53.38
75521;BME280;64102;48.628;9.002;2023-03-23T10:40:28;95601.06;;;15.77;53.21
75521;BME280;64102;48.628;9.002;2023-03-23T10:42:54;95606.28;;;15.77;53.77
75521;BME280;64102;48.628;9.002;2023-03-23T10:45:24;95604.94;;;16.17;52.35
75521;BME280;64102;48.628;9.002;2023-03-23T10:48:16;95606.69;;;17.29;48.74
75521;BME280;64102;48.628;9.002;2023-03-23T10:50:44;95601.28;;;18.06;46.46
75521;BME280;64102;48.628;9.002;2023-03-23T10:53:22;95599.97;;;17.82;46.84
75521;BME280;64102;48.628;9.002;2023-03-23T10:55:48;95610.59;;;17.12;49.37
75521;BME280;64102;48.628;9.002;2023-03-23T11:01:43;95596.84;;;16.96;49.46
75521;BME280;64102;48.628;9.002;2023-03-23T11:04:13;95604.06;;;16.94;49.81
75521;BME280;64102;48.628;9.002;2023-03-23T11:06:48;95594.81;;;16.92;49.78
75521;BME280;64102;48.628;9.002;2023-03-23T11:09:20;95603.81;;;16.89;50.15
75521;BME280;64102;48.628;9.002;2023-03-23T11:11:51;95601.28;;;16.75;50.97
75521;BME280;64102;48.628;9.002;2023-03-23T11:14:35;95598.50;;;16.34;51.59
75521;BME280;64102;48.628;9.002;2023-03-23T11:17:05;95605.44;;;16.27;52.87
75521;BME280;64102;48.628;9.002;2023-03-23T11:20:10;95595.75;;;15.85;55.34
75521;BME280;64102;48.628;9.002;2023-03-23T11:22:35;95599.13;;;15.64;57.10
75521;BME280;64102;48.628;9.002;2023-03-23T11:25:04;95581.41;;;15.53;56.15
75521;BME280;64102;48.628;9.002;2023-03-23T11:27:31;95585.00;;;15.88;54.36
75521;BME280;64102;48.628;9.002;2023-03-23T11:30:26;95582.59;;;15.86;53.76
75521;BME280;64102;48.628;9.002;2023-03-23T11:32:54;95586.09;;;16.15;53.13
75521;BME280;64102;48.628;9.002;2023-03-23T11:35:25;95574.13;;;16.41;52.11
75521;BME280;64102;48.628;9.002;2023-03-23T11:37:58;95586.41;;;16.26;51.89
75521;BME280;64102;48.628;9.002;2023-03-23T11:40:30;95583.06;;;16.32;52.33
75521;BME280;64102;48.628;9.002;2023-03-23T11:42:59;95572.94;;;16.65;51.93
75521;BME280;64102;48.628;9.002;2023-03-23T11:45:34;95578.78;;;16.67;51.33
75521;BME280;64102;48.628;9.002;2023-03-23T11:50:56;95587.47;;;16.10;52.04
75521;BME280;64102;48.628;9.002;2023-03-23T11:56:33;95562.16;;;16.26;52.00
75521;BME280;64102;48.628;9.002;2023-03-23T11:58:59;95572.81;;;16.52;51.28
75521;BME280;64102;48.628;9.002;2023-03-23T12:07:24;95566.97;;;15.86;51.33
75521;BME280;64102;48.628;9.002;2023-03-23T12:10:06;95568.34;;;15.67;51.35
75521;BME280;64102;48.628;9.002;2023-03-23T12:13:04;95568.28;;;15.61;51.71
75521;BME280;64102;48.628;9.002;2023-03-23T12:15:53;95569.44;;;15.58;52.81
75521;BME280;64102;48.628;9.002;2023-03-23T12:18:40;95564.72;;;15.62;51.53
75521;BME280;64102;48.628;9.002;2023-03-23T12:21:21;95564.84;;;15.75;51.61
75521;BME280;64102;48.628;9.002;2023-03-23T12:26:56;95568.81;;;15.71;51.90
75521;BME280;64102;48.628;9.002;2023-03-23T12:29:51;95566.75;;;15.66;51.08
75521;BME280;64102;48.628;9.002;2023-03-23T12:43:38;95559.56;;;16.26;49.84
75521;BME280;64102;48.628;9.002;2023-03-23T12:49:07;95548.53;;;16.45;48.77
75521;BME280;64102;48.628;9.002;2023-03-23T12:52:06;95554.13;;;16.63;48.27
75521;BME280;64102;48.628;9.002;2023-03-23T12:57:49;95557.66;;;16.83;47.59
75521;BME280;64102;48.628;9.002;2023-03-23T13:03:14;95530.94;;;16.75;48.16
75521;BME280;64102;48.628;9.002;2023-03-23T13:05:44;95526.53;;;16.75;47.65
75521;BME280;64102;48.628;9.002;2023-03-23T13:08:18;95524.66;;;16.97;47.45
75521;BME280;64102;48.628;9.002;2023-03-23T13:10:47;95517.88;;;16.96;47.90
75521;BME280;64102;48.628;9.002;2023-03-23T13:13:26;95517.38;;;17.14;47.80
75521;BME280;64102;48.628;9.002;2023-03-23T13:15:55;95516.16;;;17.16;47.05
75521;BME280;64102;48.628;9.002;2023-03-23T13:21:30;95510.81;;;17.31;46.45
75521;BME280;64102;48.628;9.002;2023-03-23T13:24:00;95504.16;;;17.63;46.13
75521;BME280;64102;48.628;9.002;2023-03-23T13:26:27;95505.47;;;18.13;45.35
75521;BME280;64102;48.628;9.002;2023-03-23T13:31:29;95499.78;;;17.83;44.87
75521;BME280;64102;48.628;9.002;2023-03-23T13:36:38;95489.31;;;17.70;44.85
75521;BME280;64102;48.628;9.002;2023-03-23T13:39:21;95488.59;;;18.02;43.80
75521;BME280;64102;48.628;9.002;2023-03-23T13:42:01;95487.97;;;18.00;43.27
75521;BME280;64102;48.628;9.002;2023-03-23T13:50:09;95482.16;;;18.05;43.36
75521;BME280;64102;48.628;9.002;2023-03-23T14:15:43;95463.88;;;17.31;45.05
75521;BME280;64102;48.628;9.002;2023-03-23T14:18:14;95457.00;;;17.23;44.77
75521;BME280;64102;48.628;9.002;2023-03-23T14:20:41;95456.53;;;17.07;45.19
75521;BME280;64102;48.628;9.002;2023-03-23T14:23:15;95454.88;;;16.92;45.06
75521;BME280;64102;48.628;9.002;2023-03-23T14:25:41;95456.88;;;16.90;46.04
75521;BME280;64102;48.628;9.002;2023-03-23T14:28:20;95452.34;;;16.71;46.21
75521;BME280;64102;48.628;9.002;2023-03-23T14:30:48;95445.53;;;16.70;45.65
75521;BME280;64102;48.628;9.002;2023-03-23T14:33:19;95456.84;;;16.56;46.39
75521;BME280;64102;48.628;9.002;2023-03-23T14:35:45;95452.16;;;16.45;46.03
75521;BME280;64102;48.628;9.002;2023-03-23T14:38:19;95451.69;;;16.35;45.72
75521;BME280;64102;48.628;9.002;2023-03-23T14:40:45;95451.53;;;16.15;45.28
75521;BME280;64102;48.628;9.002;2023-03-23T14:43:14;95456.78;;;16.22;45.42
75521;BME280;64102;48.628;9.002;2023-03-23T14:45:41;95463.75;;;16.15;45.39
75521;BME280;64102;48.628;9.002;2023-03-23T14:48:07;95461.06;;;16.29;45.87
75521;BME280;64102;48.628;9.002;2023-03-23T14:50:39;95456.59;;;16.23;45.36
75521;BME280;64102;48.628;9.002;2023-03-23T14:53:13;95454.38;;;16.20;45.54
75521;BME280;64102;48.628;9.002;2023-03-23T14:55:43;95455.50;;;16.11;45.52
75521;BME280;64102;48.628;9.002;2023-03-23T14:58:13;95456.75;;;16.15;45.79
75521;BME280;64102;48.628;9.002;2023-03-23T15:01:10;95469.75;;;16.15;45.27
75521;BME280;64102;48.628;9.002;2023-03-23T15:03:40;95458.59;;;16.00;44.36